ACA610 CYYZ-CYHZ
Flight info
| Callsign | ACA610 |
|---|---|
| Flight time | 1h 45m |
| Altitude | 35000 |
| Route | DEDKI5 OLABA Q951 TALNO Q929 TOXAL DCT EBONY FUNDY5 |
| Aircraft | A321/M-SDE3FGHIRWY/LB1 |
Departure
| Time | 2026-05-03 21:15 |
|---|---|
| Airport | Toronto Pearson International Airport (CYYZ) |
Arrival
| Time | 2026-05-03 23:00 |
|---|---|
| Airport | Halifax / Stanfield International Airport (CYHZ) |
| Time | Latitude | Longitude | Altitude | Speed | Heading |
|---|---|---|---|---|---|
| 2026-05-03 20:46 | 43.68162 | -79.61552 | 568 ft | 0 kts | 58° |
| 2026-05-03 21:02 | 43.68156 | -79.61565 | 567 ft | 3 kts | 58° |
| 2026-05-03 21:02 | 43.68145 | -79.61589 | 569 ft | 3 kts | 58° |
| 2026-05-03 21:02 | 43.68135 | -79.61612 | 569 ft | 3 kts | 63° |
| 2026-05-03 21:02 | 43.68128 | -79.61637 | 567 ft | 3 kts | 82° |
| 2026-05-03 21:03 | 43.68127 | -79.61665 | 561 ft | 3 kts | 94° |
| 2026-05-03 21:03 | 43.68129 | -79.61692 | 563 ft | 3 kts | 96° |
| 2026-05-03 21:03 | 43.68133 | -79.61716 | 571 ft | 3 kts | 131° |
| 2026-05-03 21:03 | 43.68147 | -79.61729 | 567 ft | 3 kts | 174° |
| 2026-05-03 21:04 | 43.68164 | -79.61730 | 569 ft | 1 kts | 181° |
| 2026-05-03 21:04 | 43.68169 | -79.61729 | 568 ft | 0 kts | 181° |
| 2026-05-03 21:06 | 43.68161 | -79.61730 | 570 ft | 3 kts | 182° |
| 2026-05-03 21:06 | 43.68140 | -79.61731 | 571 ft | 3 kts | 182° |
| 2026-05-03 21:06 | 43.68109 | -79.61754 | 566 ft | 6 kts | 223° |
| 2026-05-03 21:07 | 43.68078 | -79.61797 | 568 ft | 6 kts | 225° |
| 2026-05-03 21:07 | 43.68053 | -79.61832 | 570 ft | 5 kts | 224° |
| 2026-05-03 21:07 | 43.68018 | -79.61883 | 564 ft | 11 kts | 227° |
| 2026-05-03 21:07 | 43.67985 | -79.61976 | 566 ft | 10 kts | 250° |
| 2026-05-03 21:08 | 43.67961 | -79.62062 | 566 ft | 9 kts | 269° |
| 2026-05-03 21:08 | 43.68009 | -79.62151 | 562 ft | 13 kts | 317° |
| 2026-05-03 21:08 | 43.68070 | -79.62230 | 570 ft | 12 kts | 316° |
| 2026-05-03 21:08 | 43.68144 | -79.62327 | 569 ft | 16 kts | 316° |
| 2026-05-03 21:09 | 43.68219 | -79.62424 | 562 ft | 14 kts | 319° |
| 2026-05-03 21:09 | 43.68289 | -79.62504 | 563 ft | 12 kts | 319° |
| 2026-05-03 21:09 | 43.68345 | -79.62576 | 565 ft | 12 kts | 316° |
| 2026-05-03 21:09 | 43.68412 | -79.62665 | 566 ft | 13 kts | 316° |
| 2026-05-03 21:10 | 43.68475 | -79.62746 | 564 ft | 12 kts | 317° |
| 2026-05-03 21:10 | 43.68536 | -79.62826 | 565 ft | 12 kts | 317° |
| 2026-05-03 21:10 | 43.68601 | -79.62909 | 567 ft | 13 kts | 317° |
| 2026-05-03 21:10 | 43.68665 | -79.62991 | 569 ft | 15 kts | 316° |
| 2026-05-03 21:11 | 43.68753 | -79.63108 | 565 ft | 17 kts | 316° |
| 2026-05-03 21:11 | 43.68830 | -79.63210 | 567 ft | 14 kts | 316° |
| 2026-05-03 21:11 | 43.68898 | -79.63298 | 565 ft | 14 kts | 316° |
| 2026-05-03 21:11 | 43.68972 | -79.63395 | 564 ft | 14 kts | 316° |
| 2026-05-03 21:12 | 43.69035 | -79.63476 | 572 ft | 11 kts | 316° |
| 2026-05-03 21:12 | 43.69082 | -79.63533 | 565 ft | 9 kts | 334° |
| 2026-05-03 21:12 | 43.69142 | -79.63498 | 569 ft | 8 kts | 46° |
| 2026-05-03 21:12 | 43.69182 | -79.63444 | 567 ft | 10 kts | 36° |
| 2026-05-03 21:13 | 43.69260 | -79.63423 | 569 ft | 11 kts | 1° |
| 2026-05-03 21:13 | 43.69326 | -79.63422 | 567 ft | 8 kts | 1° |
| 2026-05-03 21:13 | 43.69376 | -79.63448 | 561 ft | 8 kts | 323° |
| 2026-05-03 21:13 | 43.69404 | -79.63498 | 562 ft | 6 kts | 280° |
| 2026-05-03 21:14 | 43.69377 | -79.63557 | 565 ft | 6 kts | 228° |
| 2026-05-03 21:14 | 43.69333 | -79.63625 | 566 ft | 25 kts | 228° |
| 2026-05-03 21:14 | 43.69063 | -79.64017 | 566 ft | 86 kts | 226° |
| 2026-05-03 21:14 | 43.68526 | -79.64794 | 570 ft | 134 kts | 226° |
| 2026-05-03 21:15 | 43.67799 | -79.65833 | 741 ft | 156 kts | 230° |
| 2026-05-03 21:15 | 43.67085 | -79.66911 | 1487 ft | 148 kts | 235° |
| 2026-05-03 21:15 | 43.66470 | -79.68004 | 2118 ft | 146 kts | 238° |
| 2026-05-03 21:15 | 43.65855 | -79.69222 | 2420 ft | 163 kts | 242° |
| 2026-05-03 21:16 | 43.65187 | -79.70617 | 2580 ft | 184 kts | 240° |
| 2026-05-03 21:16 | 43.64428 | -79.72193 | 2744 ft | 210 kts | 240° |
| 2026-05-03 21:16 | 43.63570 | -79.73953 | 3218 ft | 228 kts | 240° |
| 2026-05-03 21:16 | 43.62659 | -79.75789 | 3949 ft | 234 kts | 239° |
| 2026-05-03 21:17 | 43.61725 | -79.77650 | 4766 ft | 237 kts | 239° |
| 2026-05-03 21:17 | 43.61081 | -79.78873 | 5294 ft | 239 kts | 234° |
| 2026-05-03 21:17 | 43.59130 | -79.80471 | 6411 ft | 262 kts | 201° |
| 2026-05-03 21:17 | 43.57245 | -79.80443 | 7180 ft | 286 kts | 172° |
| 2026-05-03 21:18 | 43.55470 | -79.79015 | 7875 ft | 311 kts | 139° |
| 2026-05-03 21:18 | 43.54305 | -79.76445 | 8557 ft | 323 kts | 115° |
| 2026-05-03 21:18 | 43.53496 | -79.73519 | 9284 ft | 329 kts | 109° |
| 2026-05-03 21:18 | 43.52813 | -79.70477 | 9977 ft | 334 kts | 107° |
| 2026-05-03 21:19 | 43.52160 | -79.67339 | 10347 ft | 352 kts | 106° |
| 2026-05-03 21:19 | 43.51458 | -79.63990 | 10486 ft | 375 kts | 105° |
| 2026-05-03 21:19 | 43.50995 | -79.60368 | 10792 ft | 390 kts | 94° |
| 2026-05-03 21:19 | 43.50969 | -79.56669 | 11410 ft | 393 kts | 83° |
| 2026-05-03 21:20 | 43.51386 | -79.52962 | 12098 ft | 391 kts | 72° |
| 2026-05-03 21:20 | 43.52075 | -79.49321 | 12828 ft | 393 kts | 71° |
| 2026-05-03 21:20 | 43.52773 | -79.45661 | 13570 ft | 395 kts | 71° |
| 2026-05-03 21:20 | 43.53477 | -79.41990 | 14251 ft | 397 kts | 71° |
| 2026-05-03 21:21 | 43.54244 | -79.38302 | 14871 ft | 401 kts | 69° |
| 2026-05-03 21:21 | 43.55068 | -79.34615 | 15482 ft | 403 kts | 69° |
| 2026-05-03 21:21 | 43.55917 | -79.30960 | 16090 ft | 406 kts | 68° |
| 2026-05-03 21:21 | 43.56786 | -79.27241 | 16706 ft | 408 kts | 68° |
| 2026-05-03 21:22 | 43.57361 | -79.24750 | 17098 ft | 410 kts | 69° |
| 2026-05-03 21:22 | 43.58220 | -79.20968 | 17719 ft | 413 kts | 69° |
| 2026-05-03 21:22 | 43.59349 | -79.15916 | 18467 ft | 417 kts | 69° |
| 2026-05-03 21:22 | 43.60203 | -79.12069 | 18993 ft | 420 kts | 69° |
| 2026-05-03 21:23 | 43.60781 | -79.09458 | 19346 ft | 422 kts | 69° |
| 2026-05-03 21:23 | 43.61626 | -79.05621 | 19853 ft | 424 kts | 69° |
| 2026-05-03 21:23 | 43.62484 | -79.01711 | 20388 ft | 426 kts | 69° |
| 2026-05-03 21:23 | 43.63348 | -78.97784 | 20910 ft | 428 kts | 69° |
| 2026-05-03 21:24 | 43.64220 | -78.93835 | 21400 ft | 430 kts | 69° |
| 2026-05-03 21:24 | 43.65093 | -78.89876 | 21886 ft | 433 kts | 69° |
| 2026-05-03 21:24 | 43.65972 | -78.85876 | 22365 ft | 436 kts | 69° |
| 2026-05-03 21:24 | 43.66844 | -78.81898 | 22829 ft | 439 kts | 69° |
| 2026-05-03 21:25 | 43.67730 | -78.77835 | 23290 ft | 442 kts | 69° |
| 2026-05-03 21:25 | 43.68618 | -78.73751 | 23699 ft | 445 kts | 69° |
| 2026-05-03 21:25 | 43.69674 | -78.69724 | 24069 ft | 444 kts | 63° |
| 2026-05-03 21:25 | 43.70887 | -78.65793 | 24482 ft | 446 kts | 62° |
| 2026-05-03 21:26 | 43.72110 | -78.61849 | 24888 ft | 447 kts | 62° |
| 2026-05-03 21:26 | 43.73339 | -78.57879 | 25261 ft | 450 kts | 63° |
| 2026-05-03 21:26 | 43.74568 | -78.53883 | 25631 ft | 452 kts | 63° |
| 2026-05-03 21:26 | 43.75787 | -78.49915 | 26003 ft | 454 kts | 63° |
| 2026-05-03 21:27 | 43.77023 | -78.45879 | 26383 ft | 456 kts | 63° |
| 2026-05-03 21:27 | 43.78270 | -78.41800 | 26746 ft | 459 kts | 63° |
| 2026-05-03 21:27 | 43.79515 | -78.37721 | 27102 ft | 461 kts | 63° |
| 2026-05-03 21:27 | 43.80764 | -78.33622 | 27456 ft | 463 kts | 63° |
| 2026-05-03 21:28 | 43.82003 | -78.29548 | 27806 ft | 465 kts | 63° |
| 2026-05-03 21:28 | 43.83258 | -78.25405 | 28131 ft | 468 kts | 64° |
| 2026-05-03 21:28 | 43.84519 | -78.21238 | 28457 ft | 470 kts | 64° |
| 2026-05-03 21:28 | 43.85789 | -78.17043 | 28788 ft | 472 kts | 64° |
| 2026-05-03 21:29 | 43.87067 | -78.12823 | 29116 ft | 474 kts | 64° |
| 2026-05-03 21:29 | 43.88344 | -78.08599 | 29444 ft | 476 kts | 64° |
| 2026-05-03 21:29 | 43.89624 | -78.04359 | 29767 ft | 478 kts | 64° |
| 2026-05-03 21:29 | 43.90890 | -78.00158 | 30150 ft | 477 kts | 64° |
| 2026-05-03 21:30 | 43.92173 | -77.95898 | 30505 ft | 476 kts | 64° |
| 2026-05-03 21:30 | 43.93442 | -77.91665 | 30885 ft | 476 kts | 64° |
| 2026-05-03 21:30 | 43.94712 | -77.87407 | 31235 ft | 475 kts | 64° |
| 2026-05-03 21:30 | 43.95979 | -77.83154 | 31556 ft | 476 kts | 64° |
| 2026-05-03 21:31 | 43.97230 | -77.78956 | 31854 ft | 476 kts | 64° |
| 2026-05-03 21:31 | 43.98496 | -77.74697 | 32161 ft | 477 kts | 64° |
| 2026-05-03 21:31 | 43.99770 | -77.70418 | 32473 ft | 478 kts | 64° |
| 2026-05-03 21:31 | 44.01036 | -77.66154 | 32777 ft | 478 kts | 64° |
| 2026-05-03 21:32 | 44.02305 | -77.61873 | 33080 ft | 479 kts | 64° |
| 2026-05-03 21:32 | 44.03577 | -77.57578 | 33391 ft | 480 kts | 65° |
| 2026-05-03 21:32 | 44.04845 | -77.53294 | 33672 ft | 481 kts | 65° |
| 2026-05-03 21:32 | 44.06119 | -77.48979 | 33943 ft | 481 kts | 65° |
| 2026-05-03 21:33 | 44.07369 | -77.44720 | 34175 ft | 482 kts | 65° |
| 2026-05-03 21:33 | 44.08656 | -77.40404 | 34409 ft | 482 kts | 64° |
| 2026-05-03 21:33 | 44.10017 | -77.36137 | 34645 ft | 482 kts | 63° |
| 2026-05-03 21:33 | 44.11431 | -77.31909 | 34828 ft | 482 kts | 62° |
| 2026-05-03 21:34 | 44.14294 | -77.23513 | 34876 ft | 478 kts | 62° |
| 2026-05-03 21:34 | 44.17106 | -77.15111 | 34887 ft | 477 kts | 63° |
| 2026-05-03 21:35 | 44.19849 | -77.06724 | 34901 ft | 478 kts | 63° |
| 2026-05-03 21:35 | 44.22599 | -76.98273 | 34903 ft | 478 kts | 63° |
| 2026-05-03 21:36 | 44.25331 | -76.89877 | 34916 ft | 478 kts | 63° |
| 2026-05-03 21:36 | 44.28072 | -76.81430 | 34896 ft | 477 kts | 63° |
| 2026-05-03 21:37 | 44.30809 | -76.72971 | 34908 ft | 477 kts | 63° |
| 2026-05-03 21:37 | 44.33542 | -76.64504 | 34905 ft | 477 kts | 63° |
| 2026-05-03 21:38 | 44.36251 | -76.56091 | 34897 ft | 478 kts | 63° |
| 2026-05-03 21:38 | 44.38967 | -76.47609 | 34918 ft | 478 kts | 63° |
| 2026-05-03 21:39 | 44.41678 | -76.39121 | 34911 ft | 478 kts | 63° |
| 2026-05-03 21:39 | 44.44385 | -76.30608 | 34907 ft | 478 kts | 63° |
| 2026-05-03 21:40 | 44.47088 | -76.22095 | 34903 ft | 478 kts | 64° |
| 2026-05-03 21:40 | 44.49763 | -76.13613 | 34891 ft | 478 kts | 64° |
| 2026-05-03 21:41 | 44.52448 | -76.05086 | 34890 ft | 478 kts | 64° |
| 2026-05-03 21:41 | 44.55118 | -75.96561 | 34892 ft | 478 kts | 64° |
| 2026-05-03 21:42 | 44.57782 | -75.88015 | 34880 ft | 478 kts | 64° |
| 2026-05-03 21:42 | 44.60426 | -75.79522 | 34870 ft | 478 kts | 64° |
| 2026-05-03 21:43 | 44.63080 | -75.70951 | 34858 ft | 478 kts | 64° |
| 2026-05-03 21:43 | 44.65706 | -75.62362 | 34855 ft | 478 kts | 65° |
| 2026-05-03 21:44 | 44.68119 | -75.53701 | 34856 ft | 478 kts | 67° |
| 2026-05-03 21:44 | 44.70429 | -75.44935 | 34858 ft | 478 kts | 68° |
| 2026-05-03 21:45 | 44.72763 | -75.36176 | 34858 ft | 477 kts | 66° |
| 2026-05-03 21:45 | 44.75260 | -75.27517 | 34855 ft | 477 kts | 65° |
| 2026-05-03 21:46 | 44.77856 | -75.18920 | 34864 ft | 477 kts | 65° |
| 2026-05-03 21:46 | 44.80413 | -75.10340 | 34871 ft | 477 kts | 65° |
| 2026-05-03 21:47 | 44.82939 | -75.01680 | 34884 ft | 477 kts | 66° |
| 2026-05-03 21:47 | 44.85425 | -74.93068 | 34867 ft | 476 kts | 66° |
| 2026-05-03 21:48 | 44.87924 | -74.84410 | 34868 ft | 476 kts | 66° |
| 2026-05-03 21:48 | 44.90413 | -74.75797 | 34868 ft | 476 kts | 66° |
| 2026-05-03 21:49 | 44.92758 | -74.67055 | 34866 ft | 477 kts | 70° |
| 2026-05-03 21:49 | 44.94687 | -74.58087 | 34865 ft | 477 kts | 73° |
| 2026-05-03 21:50 | 44.96486 | -74.49112 | 34852 ft | 477 kts | 72° |
| 2026-05-03 21:50 | 44.98372 | -74.40128 | 34852 ft | 477 kts | 71° |
| 2026-05-03 21:51 | 45.00284 | -74.31130 | 34846 ft | 477 kts | 73° |
| 2026-05-03 21:51 | 45.01994 | -74.22071 | 34846 ft | 477 kts | 75° |
| 2026-05-03 21:52 | 45.03619 | -74.12971 | 34847 ft | 477 kts | 75° |
| 2026-05-03 21:52 | 45.05256 | -74.03921 | 34856 ft | 477 kts | 75° |
| 2026-05-03 21:53 | 45.06928 | -73.94820 | 34850 ft | 477 kts | 74° |
| 2026-05-03 21:53 | 45.07911 | -73.85536 | 34848 ft | 478 kts | 86° |
| 2026-05-03 21:54 | 45.08277 | -73.76190 | 34846 ft | 478 kts | 86° |
| 2026-05-03 21:54 | 45.08646 | -73.66791 | 34840 ft | 478 kts | 86° |
| 2026-05-03 21:55 | 45.09009 | -73.57401 | 34839 ft | 478 kts | 86° |
| 2026-05-03 21:55 | 45.09346 | -73.48054 | 34842 ft | 477 kts | 87° |
| 2026-05-03 21:56 | 45.09662 | -73.38663 | 34844 ft | 477 kts | 87° |
| 2026-05-03 21:56 | 45.09969 | -73.29256 | 34846 ft | 477 kts | 87° |
| 2026-05-03 21:57 | 45.10273 | -73.19929 | 34852 ft | 477 kts | 87° |
| 2026-05-03 21:57 | 45.10568 | -73.10544 | 34872 ft | 476 kts | 87° |
| 2026-05-03 21:58 | 45.10862 | -73.01180 | 34868 ft | 476 kts | 88° |
| 2026-05-03 21:58 | 45.11147 | -72.91832 | 34864 ft | 475 kts | 88° |
| 2026-05-03 21:59 | 45.11410 | -72.82550 | 34862 ft | 475 kts | 88° |
| 2026-05-03 21:59 | 45.11660 | -72.73208 | 34861 ft | 474 kts | 88° |
| 2026-05-03 22:00 | 45.11922 | -72.63877 | 34858 ft | 474 kts | 88° |
| 2026-05-03 22:00 | 45.12175 | -72.54521 | 34858 ft | 474 kts | 88° |
| 2026-05-03 22:01 | 45.12407 | -72.45231 | 34850 ft | 474 kts | 88° |
| 2026-05-03 22:01 | 45.12634 | -72.35936 | 34858 ft | 474 kts | 88° |
| 2026-05-03 22:02 | 45.12864 | -72.26606 | 34861 ft | 473 kts | 88° |
| 2026-05-03 22:02 | 45.13082 | -72.17281 | 34863 ft | 473 kts | 88° |
| 2026-05-03 22:03 | 45.13294 | -72.07962 | 34861 ft | 473 kts | 88° |
| 2026-05-03 22:03 | 45.13500 | -71.98634 | 34854 ft | 473 kts | 89° |
| 2026-05-03 22:04 | 45.13687 | -71.89357 | 34856 ft | 473 kts | 89° |
| 2026-05-03 22:04 | 45.13875 | -71.80039 | 34861 ft | 473 kts | 89° |
| 2026-05-03 22:05 | 45.14059 | -71.70727 | 34848 ft | 472 kts | 89° |
| 2026-05-03 22:05 | 45.14227 | -71.61486 | 34837 ft | 472 kts | 89° |
| 2026-05-03 22:06 | 45.14213 | -71.52159 | 34830 ft | 472 kts | 93° |
| 2026-05-03 22:06 | 45.13856 | -71.42869 | 34835 ft | 472 kts | 95° |
| 2026-05-03 22:07 | 45.13415 | -71.33631 | 34832 ft | 472 kts | 95° |
| 2026-05-03 22:07 | 45.13029 | -71.24342 | 34826 ft | 472 kts | 95° |
| 2026-05-03 22:08 | 45.12692 | -71.15108 | 34825 ft | 472 kts | 94° |
| 2026-05-03 22:08 | 45.12347 | -71.05796 | 34819 ft | 473 kts | 94° |
| 2026-05-03 22:09 | 45.11980 | -70.96493 | 34825 ft | 472 kts | 95° |
| 2026-05-03 22:10 | 45.11400 | -70.82604 | 34805 ft | 472 kts | 95° |
| 2026-05-03 22:10 | 45.11076 | -70.74881 | 34787 ft | 472 kts | 95° |
| 2026-05-03 22:11 | 45.10686 | -70.65595 | 34792 ft | 472 kts | 95° |
| 2026-05-03 22:11 | 45.10278 | -70.56313 | 34785 ft | 472 kts | 95° |
| 2026-05-03 22:12 | 45.09863 | -70.47023 | 34778 ft | 472 kts | 96° |
| 2026-05-03 22:12 | 45.09454 | -70.37809 | 34770 ft | 471 kts | 95° |
| 2026-05-03 22:13 | 45.09029 | -70.28534 | 34769 ft | 471 kts | 95° |
| 2026-05-03 22:13 | 45.08599 | -70.19284 | 34770 ft | 471 kts | 96° |
| 2026-05-03 22:14 | 45.08163 | -70.10058 | 34764 ft | 471 kts | 96° |
| 2026-05-03 22:14 | 45.07713 | -70.00808 | 34762 ft | 471 kts | 96° |
| 2026-05-03 22:15 | 45.07259 | -69.91539 | 34755 ft | 471 kts | 96° |
| 2026-05-03 22:15 | 45.06800 | -69.82330 | 34749 ft | 471 kts | 96° |
| 2026-05-03 22:16 | 45.06326 | -69.73057 | 34746 ft | 471 kts | 96° |
| 2026-05-03 22:16 | 45.05851 | -69.63798 | 34731 ft | 471 kts | 96° |
| 2026-05-03 22:17 | 45.05368 | -69.54619 | 34739 ft | 470 kts | 96° |
| 2026-05-03 22:17 | 45.04876 | -69.45397 | 34736 ft | 470 kts | 96° |
| 2026-05-03 22:18 | 45.04382 | -69.36167 | 34733 ft | 470 kts | 96° |
| 2026-05-03 22:18 | 45.03875 | -69.26955 | 34716 ft | 469 kts | 96° |
| 2026-05-03 22:19 | 45.03365 | -69.17811 | 34720 ft | 469 kts | 97° |
| 2026-05-03 22:19 | 45.02849 | -69.08597 | 34732 ft | 469 kts | 97° |
| 2026-05-03 22:20 | 45.02329 | -68.99398 | 34740 ft | 468 kts | 97° |
| 2026-05-03 22:20 | 45.01803 | -68.90284 | 34740 ft | 468 kts | 97° |
| 2026-05-03 22:21 | 45.01260 | -68.81117 | 34726 ft | 468 kts | 97° |
| 2026-05-03 22:21 | 45.00708 | -68.71945 | 34728 ft | 467 kts | 97° |
| 2026-05-03 22:22 | 45.00153 | -68.62828 | 34728 ft | 467 kts | 97° |
| 2026-05-03 22:22 | 44.99598 | -68.53677 | 34716 ft | 467 kts | 97° |
| 2026-05-03 22:23 | 44.99031 | -68.44522 | 34709 ft | 467 kts | 98° |
| 2026-05-03 22:23 | 44.98464 | -68.35429 | 34712 ft | 466 kts | 98° |
| 2026-05-03 22:24 | 44.97878 | -68.26287 | 34713 ft | 466 kts | 98° |
| 2026-05-03 22:24 | 44.97290 | -68.17207 | 34703 ft | 466 kts | 98° |
| 2026-05-03 22:25 | 44.96693 | -68.08095 | 34670 ft | 465 kts | 98° |
| 2026-05-03 22:25 | 44.96091 | -67.99047 | 34673 ft | 465 kts | 98° |
| 2026-05-03 22:26 | 44.95485 | -67.89932 | 34663 ft | 465 kts | 98° |
| 2026-05-03 22:26 | 44.94876 | -67.80832 | 34666 ft | 465 kts | 98° |
| 2026-05-03 22:27 | 44.94254 | -67.71804 | 34662 ft | 465 kts | 98° |
| 2026-05-03 22:27 | 44.93622 | -67.62690 | 34645 ft | 465 kts | 99° |
| 2026-05-03 22:28 | 44.92980 | -67.53580 | 34650 ft | 465 kts | 99° |
| 2026-05-03 22:28 | 44.92339 | -67.44555 | 34646 ft | 464 kts | 99° |
| 2026-05-03 22:29 | 44.91696 | -67.35496 | 34648 ft | 464 kts | 99° |
| 2026-05-03 22:29 | 44.91041 | -67.26447 | 34626 ft | 464 kts | 99° |
| 2026-05-03 22:30 | 44.90370 | -67.17408 | 34634 ft | 464 kts | 99° |
| 2026-05-03 22:30 | 44.90228 | -67.08328 | 34631 ft | 467 kts | 93° |
| 2026-05-03 22:31 | 44.90232 | -66.99162 | 34612 ft | 467 kts | 93° |
| 2026-05-03 22:31 | 44.90225 | -66.89983 | 34599 ft | 468 kts | 94° |
| 2026-05-03 22:32 | 44.90198 | -66.80829 | 34598 ft | 470 kts | 94° |
| 2026-05-03 22:32 | 44.90169 | -66.71606 | 34600 ft | 470 kts | 94° |
| 2026-05-03 22:33 | 44.90131 | -66.62388 | 34580 ft | 470 kts | 94° |
| 2026-05-03 22:33 | 44.90082 | -66.53156 | 34583 ft | 469 kts | 94° |
| 2026-05-03 22:34 | 44.90027 | -66.43932 | 34558 ft | 470 kts | 94° |
| 2026-05-03 22:34 | 44.89963 | -66.34764 | 34558 ft | 470 kts | 94° |
| 2026-05-03 22:35 | 44.89889 | -66.25522 | 34558 ft | 470 kts | 94° |
| 2026-05-03 22:35 | 44.89854 | -66.20898 | 34404 ft | 470 kts | 94° |
| 2026-05-03 22:35 | 44.89816 | -66.16283 | 34170 ft | 470 kts | 94° |
| 2026-05-03 22:35 | 44.89778 | -66.11674 | 33947 ft | 469 kts | 94° |
| 2026-05-03 22:36 | 44.89734 | -66.07123 | 33598 ft | 469 kts | 94° |
| 2026-05-03 22:36 | 44.89684 | -66.02463 | 32485 ft | 478 kts | 93° |
| 2026-05-03 22:36 | 44.89635 | -65.97788 | 31683 ft | 476 kts | 93° |
| 2026-05-03 22:36 | 44.89589 | -65.93123 | 31048 ft | 469 kts | 94° |
| 2026-05-03 22:37 | 44.89541 | -65.88571 | 30471 ft | 461 kts | 92° |
| 2026-05-03 22:37 | 44.89495 | -65.84133 | 29957 ft | 452 kts | 92° |
| 2026-05-03 22:37 | 44.89447 | -65.79725 | 29489 ft | 443 kts | 92° |
| 2026-05-03 22:37 | 44.89399 | -65.75401 | 28859 ft | 437 kts | 92° |
| 2026-05-03 22:38 | 44.89349 | -65.71187 | 28225 ft | 432 kts | 92° |
| 2026-05-03 22:38 | 44.89295 | -65.66960 | 27566 ft | 428 kts | 92° |
| 2026-05-03 22:38 | 44.89236 | -65.62761 | 26733 ft | 428 kts | 92° |
| 2026-05-03 22:38 | 44.89175 | -65.58608 | 26204 ft | 422 kts | 93° |
| 2026-05-03 22:39 | 44.89116 | -65.54491 | 25615 ft | 418 kts | 93° |
| 2026-05-03 22:39 | 44.89058 | -65.50412 | 25107 ft | 411 kts | 92° |
| 2026-05-03 22:39 | 44.88999 | -65.46403 | 24626 ft | 405 kts | 92° |
| 2026-05-03 22:39 | 44.88942 | -65.42515 | 24161 ft | 399 kts | 92° |
| 2026-05-03 22:40 | 44.88883 | -65.38634 | 23719 ft | 392 kts | 92° |
| 2026-05-03 22:40 | 44.88822 | -65.34819 | 23253 ft | 386 kts | 93° |
| 2026-05-03 22:40 | 44.88761 | -65.31058 | 22782 ft | 380 kts | 92° |
| 2026-05-03 22:40 | 44.88703 | -65.27366 | 22368 ft | 372 kts | 92° |
| 2026-05-03 22:41 | 44.88642 | -65.23744 | 21965 ft | 365 kts | 93° |
| 2026-05-03 22:41 | 44.88580 | -65.20197 | 21581 ft | 358 kts | 92° |
| 2026-05-03 22:41 | 44.88517 | -65.16756 | 21193 ft | 351 kts | 93° |
| 2026-05-03 22:41 | 44.88452 | -65.13337 | 20823 ft | 345 kts | 92° |
| 2026-05-03 22:42 | 44.88389 | -65.09961 | 20446 ft | 347 kts | 92° |
| 2026-05-03 22:42 | 44.88327 | -65.06546 | 20068 ft | 348 kts | 92° |
| 2026-05-03 22:42 | 44.88264 | -65.03144 | 19685 ft | 345 kts | 92° |
| 2026-05-03 22:42 | 44.88198 | -64.99762 | 19292 ft | 343 kts | 92° |
| 2026-05-03 22:43 | 44.88131 | -64.96370 | 18914 ft | 344 kts | 92° |
| 2026-05-03 22:43 | 44.88068 | -64.93055 | 18520 ft | 341 kts | 92° |
| 2026-05-03 22:43 | 44.88004 | -64.89717 | 18127 ft | 339 kts | 91° |
| 2026-05-03 22:43 | 44.87939 | -64.86395 | 17737 ft | 339 kts | 92° |
| 2026-05-03 22:44 | 44.87873 | -64.83077 | 17308 ft | 336 kts | 93° |
| 2026-05-03 22:44 | 44.87806 | -64.79814 | 16930 ft | 332 kts | 93° |
| 2026-05-03 22:44 | 44.87737 | -64.76564 | 16516 ft | 332 kts | 92° |
| 2026-05-03 22:44 | 44.87666 | -64.73320 | 16127 ft | 330 kts | 92° |
| 2026-05-03 22:45 | 44.87596 | -64.70108 | 15844 ft | 327 kts | 92° |
| 2026-05-03 22:45 | 44.87525 | -64.66902 | 15551 ft | 328 kts | 92° |
| 2026-05-03 22:45 | 44.87454 | -64.63678 | 15292 ft | 327 kts | 92° |
| 2026-05-03 22:45 | 44.87383 | -64.60484 | 15048 ft | 325 kts | 92° |
| 2026-05-03 22:46 | 44.87312 | -64.57299 | 14798 ft | 325 kts | 92° |
| 2026-05-03 22:46 | 44.87241 | -64.54106 | 14553 ft | 326 kts | 92° |
| 2026-05-03 22:46 | 44.87167 | -64.50922 | 14178 ft | 324 kts | 92° |
| 2026-05-03 22:46 | 44.87094 | -64.47799 | 13801 ft | 321 kts | 92° |
| 2026-05-03 22:47 | 44.87019 | -64.44666 | 13413 ft | 319 kts | 92° |
| 2026-05-03 22:47 | 44.86946 | -64.41554 | 13009 ft | 317 kts | 93° |
| 2026-05-03 22:47 | 44.86872 | -64.38462 | 12596 ft | 314 kts | 94° |
| 2026-05-03 22:47 | 44.86799 | -64.35399 | 12173 ft | 312 kts | 93° |
| 2026-05-03 22:48 | 44.86726 | -64.32335 | 11815 ft | 308 kts | 93° |
| 2026-05-03 22:48 | 44.86653 | -64.29325 | 11486 ft | 303 kts | 94° |
| 2026-05-03 22:48 | 44.86577 | -64.26391 | 11012 ft | 303 kts | 95° |
| 2026-05-03 22:48 | 44.86499 | -64.23425 | 10611 ft | 301 kts | 94° |
| 2026-05-03 22:49 | 44.86347 | -64.20545 | 10479 ft | 288 kts | 102° |
| 2026-05-03 22:49 | 44.85817 | -64.17893 | 10337 ft | 274 kts | 111° |
| 2026-05-03 22:49 | 44.85189 | -64.15396 | 10204 ft | 269 kts | 110° |
| 2026-05-03 22:49 | 44.84565 | -64.12913 | 10096 ft | 266 kts | 110° |
| 2026-05-03 22:50 | 44.83942 | -64.10428 | 9839 ft | 273 kts | 110° |
| 2026-05-03 22:50 | 44.83313 | -64.07909 | 9432 ft | 273 kts | 111° |
| 2026-05-03 22:50 | 44.82689 | -64.05410 | 9078 ft | 270 kts | 110° |
| 2026-05-03 22:50 | 44.82063 | -64.02912 | 8366 ft | 278 kts | 109° |
| 2026-05-03 22:51 | 44.81412 | -64.00325 | 7619 ft | 280 kts | 108° |
| 2026-05-03 22:51 | 44.80769 | -63.97771 | 7081 ft | 272 kts | 108° |
| 2026-05-03 22:51 | 44.80140 | -63.95276 | 6559 ft | 271 kts | 107° |
| 2026-05-03 22:51 | 44.79527 | -63.92850 | 6304 ft | 255 kts | 107° |
| 2026-05-03 22:52 | 44.78950 | -63.90569 | 6042 ft | 239 kts | 107° |
| 2026-05-03 22:52 | 44.78407 | -63.88427 | 5792 ft | 225 kts | 107° |
| 2026-05-03 22:52 | 44.77898 | -63.86414 | 5539 ft | 212 kts | 106° |
| 2026-05-03 22:52 | 44.77416 | -63.84513 | 5192 ft | 204 kts | 104° |
| 2026-05-03 22:53 | 44.76949 | -63.82672 | 4814 ft | 197 kts | 103° |
| 2026-05-03 22:53 | 44.76493 | -63.80878 | 4416 ft | 192 kts | 102° |
| 2026-05-03 22:53 | 44.76044 | -63.79108 | 4017 ft | 193 kts | 101° |
| 2026-05-03 22:53 | 44.75592 | -63.77315 | 3615 ft | 195 kts | 99° |
| 2026-05-03 22:54 | 44.75135 | -63.75503 | 3210 ft | 198 kts | 98° |
| 2026-05-03 22:54 | 44.74676 | -63.73691 | 3057 ft | 196 kts | 98° |
| 2026-05-03 22:54 | 44.74222 | -63.71909 | 3113 ft | 189 kts | 101° |
| 2026-05-03 22:54 | 44.73793 | -63.70239 | 3069 ft | 180 kts | 102° |
| 2026-05-03 22:55 | 44.73373 | -63.68578 | 3060 ft | 176 kts | 99° |
| 2026-05-03 22:55 | 44.73296 | -63.66950 | 3059 ft | 167 kts | 75° |
| 2026-05-03 22:55 | 44.73764 | -63.65488 | 3055 ft | 164 kts | 52° |
| 2026-05-03 22:55 | 44.74637 | -63.64452 | 3058 ft | 166 kts | 39° |
| 2026-05-03 22:56 | 44.75590 | -63.63527 | 3076 ft | 166 kts | 39° |
| 2026-05-03 22:56 | 44.76542 | -63.62593 | 2801 ft | 164 kts | 39° |
| 2026-05-03 22:56 | 44.77426 | -63.61731 | 2577 ft | 145 kts | 38° |
| 2026-05-03 22:56 | 44.78217 | -63.60957 | 2387 ft | 133 kts | 38° |
| 2026-05-03 22:57 | 44.78956 | -63.60231 | 2233 ft | 127 kts | 37° |
| 2026-05-03 22:57 | 44.79666 | -63.59533 | 2062 ft | 127 kts | 37° |
| 2026-05-03 22:57 | 44.80383 | -63.58828 | 1885 ft | 124 kts | 37° |
| 2026-05-03 22:57 | 44.81093 | -63.58128 | 1719 ft | 125 kts | 36° |
| 2026-05-03 22:58 | 44.81810 | -63.57416 | 1530 ft | 126 kts | 35° |
| 2026-05-03 22:58 | 44.82523 | -63.56712 | 1369 ft | 125 kts | 33° |
| 2026-05-03 22:58 | 44.83234 | -63.56010 | 1197 ft | 124 kts | 32° |
| 2026-05-03 22:58 | 44.83932 | -63.55325 | 1012 ft | 127 kts | 32° |
| 2026-05-03 22:59 | 44.84651 | -63.54618 | 866 ft | 124 kts | 31° |
| 2026-05-03 22:59 | 44.85124 | -63.54150 | 757 ft | 125 kts | 29° |
| 2026-05-03 22:59 | 44.85841 | -63.53459 | 631 ft | 126 kts | 29° |
| 2026-05-03 22:59 | 44.86550 | -63.52743 | 511 ft | 126 kts | 32° |
| 2026-05-03 23:00 | 44.87225 | -63.52024 | 449 ft | 109 kts | 25° |
| 2026-05-03 23:00 | 44.87690 | -63.51619 | 451 ft | 23 kts | 33° |
| 2026-05-03 23:00 | 44.87792 | -63.51520 | 452 ft | 29 kts | 35° |
| 2026-05-03 23:00 | 44.87955 | -63.51359 | 451 ft | 28 kts | 34° |
| 2026-05-03 23:01 | 44.88118 | -63.51198 | 448 ft | 30 kts | 35° |
| 2026-05-03 23:01 | 44.88261 | -63.51059 | 449 ft | 20 kts | 35° |
| 2026-05-03 23:01 | 44.88340 | -63.51058 | 450 ft | 12 kts | 307° |
| 2026-05-03 23:01 | 44.88383 | -63.51146 | 452 ft | 10 kts | 304° |
| 2026-05-03 23:02 | 44.88438 | -63.51200 | 452 ft | 10 kts | 349° |
| 2026-05-03 23:02 | 44.88507 | -63.51217 | 452 ft | 10 kts | 350° |
| 2026-05-03 23:02 | 44.88577 | -63.51233 | 452 ft | 11 kts | 351° |
| 2026-05-03 23:02 | 44.88611 | -63.51241 | 452 ft | 0 kts | 351° |
| 2026-05-03 23:03 | 44.88643 | -63.51248 | 452 ft | 9 kts | 351° |
| 2026-05-03 23:03 | 44.88695 | -63.51282 | 452 ft | 7 kts | 302° |
| 2026-05-03 23:03 | 44.88708 | -63.51348 | 452 ft | 7 kts | 286° |
| 2026-05-03 23:03 | 44.88718 | -63.51398 | 452 ft | 1 kts | 285° |
| 2026-05-03 23:04 | 44.88719 | -63.51401 | 452 ft | 0 kts | 285° |